sensor_id;sensor_type;location;lat;lon;timestamp;pressure;altitude;pressure_sealevel;temperature
15626;BMP180;7912;51.376;6.126;2022-08-03T00:02:16;101258.00;;;24.90
15626;BMP180;7912;51.376;6.126;2022-08-03T00:04:44;101266.00;;;24.80
15626;BMP180;7912;51.376;6.126;2022-08-03T00:07:11;101269.00;;;24.80
15626;BMP180;7912;51.376;6.126;2022-08-03T00:09:38;101260.00;;;24.80
15626;BMP180;7912;51.376;6.126;2022-08-03T00:12:06;101261.00;;;24.70
15626;BMP180;7912;51.376;6.126;2022-08-03T00:14:34;101265.00;;;24.70
15626;BMP180;7912;51.376;6.126;2022-08-03T00:17:01;101254.00;;;24.70
15626;BMP180;7912;51.376;6.126;2022-08-03T00:19:29;101264.00;;;24.70
15626;BMP180;7912;51.376;6.126;2022-08-03T00:21:56;101255.00;;;24.60
15626;BMP180;7912;51.376;6.126;2022-08-03T00:24:23;101259.00;;;24.60
15626;BMP180;7912;51.376;6.126;2022-08-03T00:26:51;101258.00;;;24.60
15626;BMP180;7912;51.376;6.126;2022-08-03T00:29:18;101259.00;;;24.60
15626;BMP180;7912;51.376;6.126;2022-08-03T00:31:45;101255.00;;;24.50
15626;BMP180;7912;51.376;6.126;2022-08-03T00:34:24;101254.00;;;24.50
15626;BMP180;7912;51.376;6.126;2022-08-03T00:37:02;101255.00;;;24.50
15626;BMP180;7912;51.376;6.126;2022-08-03T00:39:29;101259.00;;;24.40
15626;BMP180;7912;51.376;6.126;2022-08-03T00:41:56;101263.00;;;24.40
15626;BMP180;7912;51.376;6.126;2022-08-03T00:44:27;101261.00;;;24.30
15626;BMP180;7912;51.376;6.126;2022-08-03T00:46:55;101249.00;;;24.30
15626;BMP180;7912;51.376;6.126;2022-08-03T00:49:23;101252.00;;;24.30
15626;BMP180;7912;51.376;6.126;2022-08-03T00:51:50;101254.00;;;24.30
15626;BMP180;7912;51.376;6.126;2022-08-03T00:54:19;101253.00;;;24.20
15626;BMP180;7912;51.376;6.126;2022-08-03T00:56:47;101246.00;;;24.20
15626;BMP180;7912;51.376;6.126;2022-08-03T00:59:26;101250.00;;;24.10
15626;BMP180;7912;51.376;6.126;2022-08-03T01:01:53;101241.00;;;24.10
15626;BMP180;7912;51.376;6.126;2022-08-03T01:04:20;101244.00;;;24.10
15626;BMP180;7912;51.376;6.126;2022-08-03T01:07:16;101239.00;;;24.10
15626;BMP180;7912;51.376;6.126;2022-08-03T01:10:00;101237.00;;;24.00
15626;BMP180;7912;51.376;6.126;2022-08-03T01:12:43;101243.00;;;24.00
15626;BMP180;7912;51.376;6.126;2022-08-03T01:15:37;101233.00;;;23.90
15626;BMP180;7912;51.376;6.126;2022-08-03T01:18:50;101236.00;;;23.90
15626;BMP180;7912;51.376;6.126;2022-08-03T01:24:36;101232.00;;;23.80
15626;BMP180;7912;51.376;6.126;2022-08-03T01:30:11;101229.00;;;23.70
15626;BMP180;7912;51.376;6.126;2022-08-03T01:32:54;101228.00;;;23.70
15626;BMP180;7912;51.376;6.126;2022-08-03T01:35:51;101242.00;;;23.70
15626;BMP180;7912;51.376;6.126;2022-08-03T01:38:31;101224.00;;;23.70
15626;BMP180;7912;51.376;6.126;2022-08-03T01:41:07;101234.00;;;23.60
15626;BMP180;7912;51.376;6.126;2022-08-03T01:43:38;101216.00;;;23.60
15626;BMP180;7912;51.376;6.126;2022-08-03T01:46:29;101221.00;;;23.60
15626;BMP180;7912;51.376;6.126;2022-08-03T01:48:58;101224.00;;;23.60
15626;BMP180;7912;51.376;6.126;2022-08-03T01:51:40;101221.00;;;23.60
15626;BMP180;7912;51.376;6.126;2022-08-03T01:54:28;101208.00;;;23.60
15626;BMP180;7912;51.376;6.126;2022-08-03T01:56:58;101217.00;;;23.60
15626;BMP180;7912;51.376;6.126;2022-08-03T01:59:28;101210.00;;;23.60
15626;BMP180;7912;51.376;6.126;2022-08-03T02:02:00;101214.00;;;23.60
15626;BMP180;7912;51.376;6.126;2022-08-03T02:04:51;101202.00;;;23.60
15626;BMP180;7912;51.376;6.126;2022-08-03T02:07:20;101202.00;;;23.60
15626;BMP180;7912;51.376;6.126;2022-08-03T02:09:51;101216.00;;;23.60
15626;BMP180;7912;51.376;6.126;2022-08-03T02:12:25;101205.00;;;23.60
15626;BMP180;7912;51.376;6.126;2022-08-03T02:14:55;101211.00;;;23.60
15626;BMP180;7912;51.376;6.126;2022-08-03T02:17:27;101212.00;;;23.60
15626;BMP180;7912;51.376;6.126;2022-08-03T02:20:07;101210.00;;;23.60
15626;BMP180;7912;51.376;6.126;2022-08-03T02:22:40;101212.00;;;23.50
15626;BMP180;7912;51.376;6.126;2022-08-03T02:25:13;101211.00;;;23.60
15626;BMP180;7912;51.376;6.126;2022-08-03T02:27:54;101204.00;;;23.60
15626;BMP180;7912;51.376;6.126;2022-08-03T02:30:33;101206.00;;;23.50
15626;BMP180;7912;51.376;6.126;2022-08-03T02:33:36;101211.00;;;23.50
15626;BMP180;7912;51.376;6.126;2022-08-03T02:36:05;101205.00;;;23.50
15626;BMP180;7912;51.376;6.126;2022-08-03T02:41:59;101207.00;;;23.40
15626;BMP180;7912;51.376;6.126;2022-08-03T02:44:33;101193.00;;;23.40
15626;BMP180;7912;51.376;6.126;2022-08-03T02:47:06;101199.00;;;23.40
15626;BMP180;7912;51.376;6.126;2022-08-03T02:49:37;101196.00;;;23.40
15626;BMP180;7912;51.376;6.126;2022-08-03T02:52:20;101189.00;;;23.40
15626;BMP180;7912;51.376;6.126;2022-08-03T02:54:55;101212.00;;;23.40
15626;BMP180;7912;51.376;6.126;2022-08-03T02:57:26;101205.00;;;23.40
15626;BMP180;7912;51.376;6.126;2022-08-03T02:59:56;101212.00;;;23.30
15626;BMP180;7912;51.376;6.126;2022-08-03T03:02:24;101201.00;;;23.30
15626;BMP180;7912;51.376;6.126;2022-08-03T03:04:54;101201.00;;;23.30
15626;BMP180;7912;51.376;6.126;2022-08-03T03:07:42;101195.00;;;23.30
15626;BMP180;7912;51.376;6.126;2022-08-03T03:10:22;101202.00;;;23.20
15626;BMP180;7912;51.376;6.126;2022-08-03T03:12:55;101202.00;;;23.20
15626;BMP180;7912;51.376;6.126;2022-08-03T03:15:26;101198.00;;;23.20
15626;BMP180;7912;51.376;6.126;2022-08-03T03:17:54;101199.00;;;23.20
15626;BMP180;7912;51.376;6.126;2022-08-03T03:20:23;101193.00;;;23.20
15626;BMP180;7912;51.376;6.126;2022-08-03T03:22:58;101194.00;;;23.20
15626;BMP180;7912;51.376;6.126;2022-08-03T03:25:31;101186.00;;;23.20
15626;BMP180;7912;51.376;6.126;2022-08-03T03:27:59;101197.00;;;23.10
15626;BMP180;7912;51.376;6.126;2022-08-03T03:30:28;101184.00;;;23.10
15626;BMP180;7912;51.376;6.126;2022-08-03T03:32:57;101184.00;;;23.10
15626;BMP180;7912;51.376;6.126;2022-08-03T03:35:26;101199.00;;;23.10
15626;BMP180;7912;51.376;6.126;2022-08-03T03:37:54;101188.00;;;23.00
15626;BMP180;7912;51.376;6.126;2022-08-03T03:40:22;101194.00;;;23.00
15626;BMP180;7912;51.376;6.126;2022-08-03T03:42:50;101180.00;;;23.00
15626;BMP180;7912;51.376;6.126;2022-08-03T03:45:18;101192.00;;;23.00
15626;BMP180;7912;51.376;6.126;2022-08-03T03:47:47;101197.00;;;22.90
15626;BMP180;7912;51.376;6.126;2022-08-03T03:50:17;101185.00;;;22.90
15626;BMP180;7912;51.376;6.126;2022-08-03T03:52:44;101192.00;;;22.90
15626;BMP180;7912;51.376;6.126;2022-08-03T03:55:18;101191.00;;;22.90
15626;BMP180;7912;51.376;6.126;2022-08-03T03:57:45;101196.00;;;22.90
15626;BMP180;7912;51.376;6.126;2022-08-03T04:00:15;101195.00;;;22.90
15626;BMP180;7912;51.376;6.126;2022-08-03T04:02:44;101207.00;;;22.90
15626;BMP180;7912;51.376;6.126;2022-08-03T04:05:12;101204.00;;;22.80
15626;BMP180;7912;51.376;6.126;2022-08-03T04:08:28;101201.00;;;22.80
15626;BMP180;7912;51.376;6.126;2022-08-03T04:11:51;101197.00;;;22.70
15626;BMP180;7912;51.376;6.126;2022-08-03T04:14:25;101195.00;;;22.80
15626;BMP180;7912;51.376;6.126;2022-08-03T04:17:04;101192.00;;;22.70
15626;BMP180;7912;51.376;6.126;2022-08-03T04:19:35;101193.00;;;22.70
15626;BMP180;7912;51.376;6.126;2022-08-03T04:22:08;101187.00;;;22.80
15626;BMP180;7912;51.376;6.126;2022-08-03T04:24:49;101189.00;;;22.80
15626;BMP180;7912;51.376;6.126;2022-08-03T04:27:24;101179.00;;;22.80
15626;BMP180;7912;51.376;6.126;2022-08-03T04:29:55;101194.00;;;22.80
15626;BMP180;7912;51.376;6.126;2022-08-03T04:32:25;101184.00;;;22.90
15626;BMP180;7912;51.376;6.126;2022-08-03T04:34:55;101188.00;;;22.90
15626;BMP180;7912;51.376;6.126;2022-08-03T04:37:41;101183.00;;;22.90
15626;BMP180;7912;51.376;6.126;2022-08-03T04:40:17;101199.00;;;22.90
15626;BMP180;7912;51.376;6.126;2022-08-03T04:42:49;101195.00;;;22.90
15626;BMP180;7912;51.376;6.126;2022-08-03T04:45:19;101196.00;;;23.00
15626;BMP180;7912;51.376;6.126;2022-08-03T04:47:49;101190.00;;;23.00
15626;BMP180;7912;51.376;6.126;2022-08-03T04:50:16;101197.00;;;23.00
15626;BMP180;7912;51.376;6.126;2022-08-03T04:52:48;101211.00;;;23.10
15626;BMP180;7912;51.376;6.126;2022-08-03T04:55:32;101205.00;;;23.10
15626;BMP180;7912;51.376;6.126;2022-08-03T04:58:02;101208.00;;;23.10
15626;BMP180;7912;51.376;6.126;2022-08-03T05:00:30;101210.00;;;23.20
15626;BMP180;7912;51.376;6.126;2022-08-03T05:02:57;101213.00;;;23.20
15626;BMP180;7912;51.376;6.126;2022-08-03T05:05:25;101212.00;;;23.30
15626;BMP180;7912;51.376;6.126;2022-08-03T05:08:12;101220.00;;;23.30
15626;BMP180;7912;51.376;6.126;2022-08-03T05:10:40;101210.00;;;23.40
15626;BMP180;7912;51.376;6.126;2022-08-03T05:13:07;101209.00;;;23.40
15626;BMP180;7912;51.376;6.126;2022-08-03T05:15:38;101213.00;;;23.40
15626;BMP180;7912;51.376;6.126;2022-08-03T05:22:37;101212.00;;;23.40
15626;BMP180;7912;51.376;6.126;2022-08-03T05:25:05;101221.00;;;23.40
15626;BMP180;7912;51.376;6.126;2022-08-03T05:27:33;101221.00;;;23.50
15626;BMP180;7912;51.376;6.126;2022-08-03T05:30:01;101225.00;;;23.50
15626;BMP180;7912;51.376;6.126;2022-08-03T05:32:49;101222.00;;;23.60
15626;BMP180;7912;51.376;6.126;2022-08-03T05:35:16;101207.00;;;23.60
15626;BMP180;7912;51.376;6.126;2022-08-03T05:38:04;101217.00;;;23.70
15626;BMP180;7912;51.376;6.126;2022-08-03T05:40:35;101217.00;;;23.70
15626;BMP180;7912;51.376;6.126;2022-08-03T05:43:03;101219.00;;;23.80
15626;BMP180;7912;51.376;6.126;2022-08-03T05:45:32;101216.00;;;23.80
15626;BMP180;7912;51.376;6.126;2022-08-03T05:48:05;101215.00;;;23.90
15626;BMP180;7912;51.376;6.126;2022-08-03T05:50:34;101215.00;;;23.90
15626;BMP180;7912;51.376;6.126;2022-08-03T05:53:09;101220.00;;;24.00
15626;BMP180;7912;51.376;6.126;2022-08-03T05:55:42;101213.00;;;24.10
15626;BMP180;7912;51.376;6.126;2022-08-03T05:58:12;101214.00;;;24.10
15626;BMP180;7912;51.376;6.126;2022-08-03T06:00:45;101219.00;;;24.20
15626;BMP180;7912;51.376;6.126;2022-08-03T06:03:12;101219.00;;;24.20
15626;BMP180;7912;51.376;6.126;2022-08-03T06:05:59;101209.00;;;24.30
15626;BMP180;7912;51.376;6.126;2022-08-03T06:08:31;101214.00;;;24.30
15626;BMP180;7912;51.376;6.126;2022-08-03T06:11:04;101213.00;;;24.40
15626;BMP180;7912;51.376;6.126;2022-08-03T06:13:33;101205.00;;;24.50
15626;BMP180;7912;51.376;6.126;2022-08-03T06:16:02;101222.00;;;24.60
15626;BMP180;7912;51.376;6.126;2022-08-03T06:18:32;101215.00;;;24.70
15626;BMP180;7912;51.376;6.126;2022-08-03T06:21:03;101205.00;;;24.80
15626;BMP180;7912;51.376;6.126;2022-08-03T06:23:43;101218.00;;;24.90
15626;BMP180;7912;51.376;6.126;2022-08-03T06:26:24;101214.00;;;25.10
15626;BMP180;7912;51.376;6.126;2022-08-03T06:28:53;101213.00;;;25.30
15626;BMP180;7912;51.376;6.126;2022-08-03T06:31:25;101218.00;;;25.40
15626;BMP180;7912;51.376;6.126;2022-08-03T06:34:06;101225.00;;;25.60
15626;BMP180;7912;51.376;6.126;2022-08-03T06:36:54;101227.00;;;25.80
15626;BMP180;7912;51.376;6.126;2022-08-03T06:39:28;101226.00;;;26.00
15626;BMP180;7912;51.376;6.126;2022-08-03T06:41:59;101221.00;;;26.20
15626;BMP180;7912;51.376;6.126;2022-08-03T06:44:28;101228.00;;;26.40
15626;BMP180;7912;51.376;6.126;2022-08-03T06:47:35;101230.00;;;26.60
15626;BMP180;7912;51.376;6.126;2022-08-03T06:50:14;101223.00;;;26.80
15626;BMP180;7912;51.376;6.126;2022-08-03T06:52:54;101224.00;;;27.00
15626;BMP180;7912;51.376;6.126;2022-08-03T06:55:27;101219.00;;;27.40
15626;BMP180;7912;51.376;6.126;2022-08-03T06:58:08;101235.00;;;27.70
15626;BMP180;7912;51.376;6.126;2022-08-03T07:00:42;101231.00;;;28.20
15626;BMP180;7912;51.376;6.126;2022-08-03T07:03:13;101213.00;;;28.80
15626;BMP180;7912;51.376;6.126;2022-08-03T07:05:46;101228.00;;;29.40
15626;BMP180;7912;51.376;6.126;2022-08-03T07:08:15;101224.00;;;30.00
15626;BMP180;7912;51.376;6.126;2022-08-03T07:10:59;101226.00;;;30.50
15626;BMP180;7912;51.376;6.126;2022-08-03T07:13:30;101215.00;;;31.10
15626;BMP180;7912;51.376;6.126;2022-08-03T07:15:59;101210.00;;;31.90
15626;BMP180;7912;51.376;6.126;2022-08-03T07:18:28;101216.00;;;32.50
15626;BMP180;7912;51.376;6.126;2022-08-03T07:20:58;101224.00;;;33.10
15626;BMP180;7912;51.376;6.126;2022-08-03T07:23:25;101220.00;;;33.60
15626;BMP180;7912;51.376;6.126;2022-08-03T07:25:53;101223.00;;;34.10
15626;BMP180;7912;51.376;6.126;2022-08-03T07:28:21;101230.00;;;34.40
15626;BMP180;7912;51.376;6.126;2022-08-03T07:30:56;101232.00;;;34.70
15626;BMP180;7912;51.376;6.126;2022-08-03T07:33:26;101236.00;;;34.80
15626;BMP180;7912;51.376;6.126;2022-08-03T07:35:55;101238.00;;;34.80
15626;BMP180;7912;51.376;6.126;2022-08-03T07:38:24;101229.00;;;34.70
15626;BMP180;7912;51.376;6.126;2022-08-03T07:40:59;101233.00;;;34.80
15626;BMP180;7912;51.376;6.126;2022-08-03T07:43:32;101230.00;;;35.10
15626;BMP180;7912;51.376;6.126;2022-08-03T07:46:08;101230.00;;;35.30
15626;BMP180;7912;51.376;6.126;2022-08-03T07:48:40;101229.00;;;35.70
15626;BMP180;7912;51.376;6.126;2022-08-03T07:51:10;101224.00;;;36.10
15626;BMP180;7912;51.376;6.126;2022-08-03T07:53:41;101232.00;;;36.30
15626;BMP180;7912;51.376;6.126;2022-08-03T07:56:14;101234.00;;;36.50
15626;BMP180;7912;51.376;6.126;2022-08-03T07:58:51;101245.00;;;36.50
15626;BMP180;7912;51.376;6.126;2022-08-03T08:01:21;101236.00;;;36.50
15626;BMP180;7912;51.376;6.126;2022-08-03T08:03:57;101242.00;;;36.60
15626;BMP180;7912;51.376;6.126;2022-08-03T08:06:25;101243.00;;;36.70
15626;BMP180;7912;51.376;6.126;2022-08-03T08:08:53;101239.00;;;36.80
15626;BMP180;7912;51.376;6.126;2022-08-03T08:11:26;101240.00;;;37.00
15626;BMP180;7912;51.376;6.126;2022-08-03T08:13:54;101231.00;;;37.10
15626;BMP180;7912;51.376;6.126;2022-08-03T08:16:24;101229.00;;;37.40
15626;BMP180;7912;51.376;6.126;2022-08-03T08:18:52;101228.00;;;37.90
15626;BMP180;7912;51.376;6.126;2022-08-03T08:21:20;101234.00;;;38.30
15626;BMP180;7912;51.376;6.126;2022-08-03T08:24:10;101229.00;;;38.60
15626;BMP180;7912;51.376;6.126;2022-08-03T08:26:46;101223.00;;;38.90
15626;BMP180;7912;51.376;6.126;2022-08-03T08:29:14;101224.00;;;39.20
15626;BMP180;7912;51.376;6.126;2022-08-03T08:31:46;101228.00;;;39.30
15626;BMP180;7912;51.376;6.126;2022-08-03T08:34:13;101221.00;;;39.40
15626;BMP180;7912;51.376;6.126;2022-08-03T08:36:45;101231.00;;;39.30
15626;BMP180;7912;51.376;6.126;2022-08-03T08:39:14;101220.00;;;39.10
15626;BMP180;7912;51.376;6.126;2022-08-03T08:41:53;101227.00;;;39.00
15626;BMP180;7912;51.376;6.126;2022-08-03T08:44:28;101232.00;;;39.00
15626;BMP180;7912;51.376;6.126;2022-08-03T08:47:01;101232.00;;;39.10
15626;BMP180;7912;51.376;6.126;2022-08-03T08:49:35;101237.00;;;39.30
15626;BMP180;7912;51.376;6.126;2022-08-03T08:52:08;101228.00;;;39.30
15626;BMP180;7912;51.376;6.126;2022-08-03T08:54:58;101230.00;;;39.40
15626;BMP180;7912;51.376;6.126;2022-08-03T08:57:35;101232.00;;;39.50
15626;BMP180;7912;51.376;6.126;2022-08-03T09:00:13;101231.00;;;39.70
15626;BMP180;7912;51.376;6.126;2022-08-03T09:02:45;101237.00;;;39.90
15626;BMP180;7912;51.376;6.126;2022-08-03T09:05:16;101229.00;;;40.00
15626;BMP180;7912;51.376;6.126;2022-08-03T09:07:46;101239.00;;;39.90
15626;BMP180;7912;51.376;6.126;2022-08-03T09:10:17;101232.00;;;39.90
15626;BMP180;7912;51.376;6.126;2022-08-03T09:12:50;101226.00;;;40.20
15626;BMP180;7912;51.376;6.126;2022-08-03T09:15:29;101216.00;;;40.20
15626;BMP180;7912;51.376;6.126;2022-08-03T09:18:02;101229.00;;;40.00
15626;BMP180;7912;51.376;6.126;2022-08-03T09:20:33;101234.00;;;39.70
15626;BMP180;7912;51.376;6.126;2022-08-03T09:23:06;101235.00;;;39.50
15626;BMP180;7912;51.376;6.126;2022-08-03T09:25:58;101236.00;;;39.30
15626;BMP180;7912;51.376;6.126;2022-08-03T09:28:34;101228.00;;;39.30
15626;BMP180;7912;51.376;6.126;2022-08-03T09:31:36;101235.00;;;39.40
15626;BMP180;7912;51.376;6.126;2022-08-03T09:34:07;101229.00;;;39.60
15626;BMP180;7912;51.376;6.126;2022-08-03T09:36:48;101229.00;;;39.90
15626;BMP180;7912;51.376;6.126;2022-08-03T09:39:25;101227.00;;;40.00
15626;BMP180;7912;51.376;6.126;2022-08-03T09:42:16;101228.00;;;40.10
15626;BMP180;7912;51.376;6.126;2022-08-03T09:44:51;101225.00;;;40.30
15626;BMP180;7912;51.376;6.126;2022-08-03T09:47:33;101235.00;;;40.40
15626;BMP180;7912;51.376;6.126;2022-08-03T09:50:11;101229.00;;;40.60
15626;BMP180;7912;51.376;6.126;2022-08-03T09:52:40;101225.00;;;40.70
15626;BMP180;7912;51.376;6.126;2022-08-03T09:55:19;101229.00;;;40.90
15626;BMP180;7912;51.376;6.126;2022-08-03T09:58:12;101206.00;;;41.20
15626;BMP180;7912;51.376;6.126;2022-08-03T10:01:04;101218.00;;;41.40
15626;BMP180;7912;51.376;6.126;2022-08-03T10:03:37;101217.00;;;41.50
15626;BMP180;7912;51.376;6.126;2022-08-03T10:06:25;101217.00;;;41.50
15626;BMP180;7912;51.376;6.126;2022-08-03T10:09:23;101215.00;;;41.60
15626;BMP180;7912;51.376;6.126;2022-08-03T10:11:50;101220.00;;;41.40
15626;BMP180;7912;51.376;6.126;2022-08-03T10:14:18;101215.00;;;41.40
15626;BMP180;7912;51.376;6.126;2022-08-03T10:16:49;101215.00;;;41.40
15626;BMP180;7912;51.376;6.126;2022-08-03T10:19:17;101208.00;;;41.30
15626;BMP180;7912;51.376;6.126;2022-08-03T10:21:58;101212.00;;;41.40
15626;BMP180;7912;51.376;6.126;2022-08-03T10:24:32;101202.00;;;41.70
15626;BMP180;7912;51.376;6.126;2022-08-03T10:27:12;101214.00;;;41.70
15626;BMP180;7912;51.376;6.126;2022-08-03T10:29:57;101196.00;;;41.70
15626;BMP180;7912;51.376;6.126;2022-08-03T10:32:34;101202.00;;;41.60
15626;BMP180;7912;51.376;6.126;2022-08-03T10:35:11;101208.00;;;41.60
15626;BMP180;7912;51.376;6.126;2022-08-03T10:38:03;101200.00;;;41.60
15626;BMP180;7912;51.376;6.126;2022-08-03T10:40:39;101207.00;;;41.40
15626;BMP180;7912;51.376;6.126;2022-08-03T10:43:27;101212.00;;;41.20
15626;BMP180;7912;51.376;6.126;2022-08-03T10:45:59;101197.00;;;41.00
15626;BMP180;7912;51.376;6.126;2022-08-03T10:48:30;101212.00;;;40.90
15626;BMP180;7912;51.376;6.126;2022-08-03T10:51:02;101203.00;;;40.80
15626;BMP180;7912;51.376;6.126;2022-08-03T10:53:37;101207.00;;;40.80
15626;BMP180;7912;51.376;6.126;2022-08-03T10:59:19;101198.00;;;40.70
15626;BMP180;7912;51.376;6.126;2022-08-03T11:02:09;101199.00;;;40.90
15626;BMP180;7912;51.376;6.126;2022-08-03T11:04:42;101192.00;;;41.20
15626;BMP180;7912;51.376;6.126;2022-08-03T11:07:23;101185.00;;;41.70
15626;BMP180;7912;51.376;6.126;2022-08-03T11:09:54;101182.00;;;42.20
15626;BMP180;7912;51.376;6.126;2022-08-03T11:12:31;101186.00;;;42.60
15626;BMP180;7912;51.376;6.126;2022-08-03T11:15:05;101192.00;;;42.60
15626;BMP180;7912;51.376;6.126;2022-08-03T11:17:34;101179.00;;;42.60
15626;BMP180;7912;51.376;6.126;2022-08-03T11:20:12;101186.00;;;42.60
15626;BMP180;7912;51.376;6.126;2022-08-03T11:22:48;101183.00;;;42.70
15626;BMP180;7912;51.376;6.126;2022-08-03T11:25:23;101182.00;;;42.90
15626;BMP180;7912;51.376;6.126;2022-08-03T11:28:31;101176.00;;;43.10
15626;BMP180;7912;51.376;6.126;2022-08-03T11:40:47;101167.00;;;43.80
15626;BMP180;7912;51.376;6.126;2022-08-03T11:46:14;101164.00;;;44.30
15626;BMP180;7912;51.376;6.126;2022-08-03T11:49:05;101161.00;;;44.20
15626;BMP180;7912;51.376;6.126;2022-08-03T11:51:37;101163.00;;;43.90
15626;BMP180;7912;51.376;6.126;2022-08-03T11:54:08;101173.00;;;43.60
15626;BMP180;7912;51.376;6.126;2022-08-03T11:56:52;101170.00;;;43.50
15626;BMP180;7912;51.376;6.126;2022-08-03T11:59:37;101181.00;;;43.30
15626;BMP180;7912;51.376;6.126;2022-08-03T12:02:11;101173.00;;;43.00
15626;BMP180;7912;51.376;6.126;2022-08-03T12:04:56;101177.00;;;42.70
15626;BMP180;7912;51.376;6.126;2022-08-03T12:07:33;101175.00;;;42.60
15626;BMP180;7912;51.376;6.126;2022-08-03T12:10:33;101181.00;;;42.70
15626;BMP180;7912;51.376;6.126;2022-08-03T12:13:14;101177.00;;;42.60
15626;BMP180;7912;51.376;6.126;2022-08-03T12:16:21;101165.00;;;42.70
15626;BMP180;7912;51.376;6.126;2022-08-03T12:19:01;101170.00;;;43.00
15626;BMP180;7912;51.376;6.126;2022-08-03T12:21:45;101164.00;;;43.20
15626;BMP180;7912;51.376;6.126;2022-08-03T12:24:42;101174.00;;;43.50
15626;BMP180;7912;51.376;6.126;2022-08-03T12:27:53;101164.00;;;43.30
15626;BMP180;7912;51.376;6.126;2022-08-03T12:30:59;101168.00;;;43.00
15626;BMP180;7912;51.376;6.126;2022-08-03T12:34:00;101167.00;;;42.40
15626;BMP180;7912;51.376;6.126;2022-08-03T12:36:51;101170.00;;;42.10
15626;BMP180;7912;51.376;6.126;2022-08-03T12:40:03;101165.00;;;42.10
15626;BMP180;7912;51.376;6.126;2022-08-03T12:42:39;101163.00;;;42.30
15626;BMP180;7912;51.376;6.126;2022-08-03T12:45:36;101156.00;;;42.70
15626;BMP180;7912;51.376;6.126;2022-08-03T12:48:14;101160.00;;;42.90
15626;BMP180;7912;51.376;6.126;2022-08-03T12:51:19;101160.00;;;43.10
15626;BMP180;7912;51.376;6.126;2022-08-03T12:53:53;101152.00;;;43.10
15626;BMP180;7912;51.376;6.126;2022-08-03T12:56:29;101159.00;;;42.80
15626;BMP180;7912;51.376;6.126;2022-08-03T12:59:31;101163.00;;;42.50
15626;BMP180;7912;51.376;6.126;2022-08-03T13:02:19;101161.00;;;42.40
15626;BMP180;7912;51.376;6.126;2022-08-03T13:04:55;101164.00;;;42.60
15626;BMP180;7912;51.376;6.126;2022-08-03T13:07:46;101149.00;;;42.70
15626;BMP180;7912;51.376;6.126;2022-08-03T13:10:49;101156.00;;;42.80
15626;BMP180;7912;51.376;6.126;2022-08-03T13:13:57;101160.00;;;42.80
15626;BMP180;7912;51.376;6.126;2022-08-03T13:16:51;101147.00;;;42.90
15626;BMP180;7912;51.376;6.126;2022-08-03T13:19:27;101149.00;;;43.20
15626;BMP180;7912;51.376;6.126;2022-08-03T13:21:56;101152.00;;;43.70
15626;BMP180;7912;51.376;6.126;2022-08-03T13:24:31;101155.00;;;44.00
15626;BMP180;7912;51.376;6.126;2022-08-03T13:27:07;101157.00;;;43.80
15626;BMP180;7912;51.376;6.126;2022-08-03T13:30:01;101148.00;;;43.60
15626;BMP180;7912;51.376;6.126;2022-08-03T13:32:59;101169.00;;;43.10
15626;BMP180;7912;51.376;6.126;2022-08-03T13:35:30;101157.00;;;42.90
15626;BMP180;7912;51.376;6.126;2022-08-03T13:37:59;101157.00;;;43.00
15626;BMP180;7912;51.376;6.126;2022-08-03T13:40:33;101153.00;;;43.40
15626;BMP180;7912;51.376;6.126;2022-08-03T13:43:07;101143.00;;;43.80
15626;BMP180;7912;51.376;6.126;2022-08-03T13:45:39;101135.00;;;44.10
15626;BMP180;7912;51.376;6.126;2022-08-03T13:48:20;101145.00;;;44.60
15626;BMP180;7912;51.376;6.126;2022-08-03T13:51:03;101138.00;;;44.70
15626;BMP180;7912;51.376;6.126;2022-08-03T13:53:50;101132.00;;;44.70
15626;BMP180;7912;51.376;6.126;2022-08-03T13:56:18;101132.00;;;44.80
15626;BMP180;7912;51.376;6.126;2022-08-03T13:59:01;101138.00;;;44.70
15626;BMP180;7912;51.376;6.126;2022-08-03T14:02:11;101132.00;;;44.20
15626;BMP180;7912;51.376;6.126;2022-08-03T14:04:55;101133.00;;;44.30
15626;BMP180;7912;51.376;6.126;2022-08-03T14:07:32;101128.00;;;44.30
15626;BMP180;7912;51.376;6.126;2022-08-03T14:10:29;101134.00;;;44.20
15626;BMP180;7912;51.376;6.126;2022-08-03T14:13:11;101127.00;;;43.70
15626;BMP180;7912;51.376;6.126;2022-08-03T14:15:46;101132.00;;;43.30
15626;BMP180;7912;51.376;6.126;2022-08-03T14:18:20;101132.00;;;42.90
15626;BMP180;7912;51.376;6.126;2022-08-03T14:21:11;101131.00;;;42.60
15626;BMP180;7912;51.376;6.126;2022-08-03T14:23:55;101120.00;;;42.30
15626;BMP180;7912;51.376;6.126;2022-08-03T14:26:26;101123.00;;;42.40
15626;BMP180;7912;51.376;6.126;2022-08-03T14:28:54;101119.00;;;42.50
15626;BMP180;7912;51.376;6.126;2022-08-03T14:31:23;101119.00;;;42.60
15626;BMP180;7912;51.376;6.126;2022-08-03T14:34:07;101115.00;;;42.90
15626;BMP180;7912;51.376;6.126;2022-08-03T14:36:41;101119.00;;;43.10
15626;BMP180;7912;51.376;6.126;2022-08-03T14:39:12;101096.00;;;43.00
15626;BMP180;7912;51.376;6.126;2022-08-03T14:41:55;101106.00;;;42.50
15626;BMP180;7912;51.376;6.126;2022-08-03T14:51:35;101100.00;;;42.40
15626;BMP180;7912;51.376;6.126;2022-08-03T14:54:55;101093.00;;;42.90
15626;BMP180;7912;51.376;6.126;2022-08-03T14:57:22;101089.00;;;43.30
15626;BMP180;7912;51.376;6.126;2022-08-03T14:59:50;101081.00;;;43.50
15626;BMP180;7912;51.376;6.126;2022-08-03T15:02:24;101081.00;;;43.70
15626;BMP180;7912;51.376;6.126;2022-08-03T15:04:55;101087.00;;;43.70
15626;BMP180;7912;51.376;6.126;2022-08-03T15:07:25;101087.00;;;43.30
15626;BMP180;7912;51.376;6.126;2022-08-03T15:09:53;101091.00;;;43.10
15626;BMP180;7912;51.376;6.126;2022-08-03T15:12:25;101084.00;;;43.00
15626;BMP180;7912;51.376;6.126;2022-08-03T15:14:53;101074.00;;;43.10
15626;BMP180;7912;51.376;6.126;2022-08-03T15:17:20;101086.00;;;43.20
15626;BMP180;7912;51.376;6.126;2022-08-03T15:19:48;101078.00;;;43.10
15626;BMP180;7912;51.376;6.126;2022-08-03T15:22:31;101076.00;;;43.10
15626;BMP180;7912;51.376;6.126;2022-08-03T15:25:04;101069.00;;;43.30
15626;BMP180;7912;51.376;6.126;2022-08-03T15:27:53;101075.00;;;43.20
15626;BMP180;7912;51.376;6.126;2022-08-03T15:30:33;101079.00;;;42.70
15626;BMP180;7912;51.376;6.126;2022-08-03T15:33:04;101084.00;;;42.40
15626;BMP180;7912;51.376;6.126;2022-08-03T15:35:34;101075.00;;;42.10
15626;BMP180;7912;51.376;6.126;2022-08-03T15:38:03;101075.00;;;41.80
15626;BMP180;7912;51.376;6.126;2022-08-03T15:40:35;101075.00;;;41.80